sensor_id;sensor_type;location;lat;lon;timestamp;P1;durP1;ratioP1;P2;durP2;ratioP2
62610;SDS011;48683;48.084;17.272;2023-04-06T00:01:16;5.97;;;4.70;;
62610;SDS011;48683;48.084;17.272;2023-04-06T00:03:41;10.57;;;5.60;;
62610;SDS011;48683;48.084;17.272;2023-04-06T00:06:07;7.10;;;4.93;;
62610;SDS011;48683;48.084;17.272;2023-04-06T00:08:32;7.97;;;5.35;;
62610;SDS011;48683;48.084;17.272;2023-04-06T00:10:58;7.53;;;5.28;;
62610;SDS011;48683;48.084;17.272;2023-04-06T00:13:23;8.63;;;5.57;;
62610;SDS011;48683;48.084;17.272;2023-04-06T00:15:48;9.18;;;5.03;;
62610;SDS011;48683;48.084;17.272;2023-04-06T00:18:14;9.43;;;4.78;;
62610;SDS011;48683;48.084;17.272;2023-04-06T00:20:39;9.50;;;4.85;;
62610;SDS011;48683;48.084;17.272;2023-04-06T00:23:05;9.98;;;5.35;;
62610;SDS011;48683;48.084;17.272;2023-04-06T00:25:30;8.50;;;5.28;;
62610;SDS011;48683;48.084;17.272;2023-04-06T00:27:56;7.63;;;4.90;;
62610;SDS011;48683;48.084;17.272;2023-04-06T00:30:21;8.98;;;5.40;;
62610;SDS011;48683;48.084;17.272;2023-04-06T00:32:47;10.98;;;6.00;;
62610;SDS011;48683;48.084;17.272;2023-04-06T00:35:12;8.55;;;5.70;;
62610;SDS011;48683;48.084;17.272;2023-04-06T00:37:38;10.45;;;5.53;;
62610;SDS011;48683;48.084;17.272;2023-04-06T00:40:05;9.23;;;5.50;;
62610;SDS011;48683;48.084;17.272;2023-04-06T00:42:31;9.65;;;5.53;;
62610;SDS011;48683;48.084;17.272;2023-04-06T00:44:57;10.73;;;5.90;;
62610;SDS011;48683;48.084;17.272;2023-04-06T00:47:24;9.68;;;5.60;;
62610;SDS011;48683;48.084;17.272;2023-04-06T00:49:51;10.43;;;6.10;;
62610;SDS011;48683;48.084;17.272;2023-04-06T00:52:17;8.10;;;5.10;;
62610;SDS011;48683;48.084;17.272;2023-04-06T00:54:42;8.43;;;5.20;;
62610;SDS011;48683;48.084;17.272;2023-04-06T00:57:08;7.90;;;5.13;;
62610;SDS011;48683;48.084;17.272;2023-04-06T00:59:34;7.65;;;4.80;;
62610;SDS011;48683;48.084;17.272;2023-04-06T01:02:00;12.02;;;5.50;;
62610;SDS011;48683;48.084;17.272;2023-04-06T01:04:26;8.55;;;5.57;;
62610;SDS011;48683;48.084;17.272;2023-04-06T01:06:51;9.25;;;6.30;;
62610;SDS011;48683;48.084;17.272;2023-04-06T01:09:17;7.65;;;4.82;;
62610;SDS011;48683;48.084;17.272;2023-04-06T01:11:42;9.75;;;5.53;;
62610;SDS011;48683;48.084;17.272;2023-04-06T01:14:08;8.55;;;5.45;;
62610;SDS011;48683;48.084;17.272;2023-04-06T01:16:34;11.63;;;4.97;;
62610;SDS011;48683;48.084;17.272;2023-04-06T01:19:00;10.77;;;4.97;;
62610;SDS011;48683;48.084;17.272;2023-04-06T01:21:26;8.38;;;5.25;;
62610;SDS011;48683;48.084;17.272;2023-04-06T01:23:51;10.63;;;5.20;;
62610;SDS011;48683;48.084;17.272;2023-04-06T01:26:17;8.27;;;4.65;;
62610;SDS011;48683;48.084;17.272;2023-04-06T01:28:42;6.63;;;5.00;;
62610;SDS011;48683;48.084;17.272;2023-04-06T01:31:09;9.07;;;4.87;;
62610;SDS011;48683;48.084;17.272;2023-04-06T01:33:34;8.75;;;4.65;;
62610;SDS011;48683;48.084;17.272;2023-04-06T01:36:00;11.60;;;5.68;;
62610;SDS011;48683;48.084;17.272;2023-04-06T01:38:26;10.25;;;4.75;;
62610;SDS011;48683;48.084;17.272;2023-04-06T01:40:51;8.82;;;4.65;;
62610;SDS011;48683;48.084;17.272;2023-04-06T01:43:17;7.55;;;4.72;;
62610;SDS011;48683;48.084;17.272;2023-04-06T01:45:43;7.82;;;4.97;;
62610;SDS011;48683;48.084;17.272;2023-04-06T01:48:08;8.50;;;5.03;;
62610;SDS011;48683;48.084;17.272;2023-04-06T01:50:34;9.13;;;4.75;;
62610;SDS011;48683;48.084;17.272;2023-04-06T01:52:59;7.85;;;4.85;;
62610;SDS011;48683;48.084;17.272;2023-04-06T01:55:25;6.25;;;4.32;;
62610;SDS011;48683;48.084;17.272;2023-04-06T01:57:51;8.30;;;5.32;;
62610;SDS011;48683;48.084;17.272;2023-04-06T02:00:16;7.05;;;4.30;;
62610;SDS011;48683;48.084;17.272;2023-04-06T02:02:41;7.03;;;4.88;;
62610;SDS011;48683;48.084;17.272;2023-04-06T02:05:07;10.10;;;5.70;;
62610;SDS011;48683;48.084;17.272;2023-04-06T02:07:33;8.85;;;5.47;;
62610;SDS011;48683;48.084;17.272;2023-04-06T02:09:58;6.85;;;5.10;;
62610;SDS011;48683;48.084;17.272;2023-04-06T02:12:23;7.82;;;4.88;;
62610;SDS011;48683;48.084;17.272;2023-04-06T02:14:49;8.35;;;5.07;;
62610;SDS011;48683;48.084;17.272;2023-04-06T02:17:14;9.02;;;5.10;;
62610;SDS011;48683;48.084;17.272;2023-04-06T02:19:40;11.13;;;5.72;;
62610;SDS011;48683;48.084;17.272;2023-04-06T02:22:05;10.95;;;5.15;;
62610;SDS011;48683;48.084;17.272;2023-04-06T02:24:31;10.13;;;5.97;;
62610;SDS011;48683;48.084;17.272;2023-04-06T02:26:57;9.10;;;5.20;;
62610;SDS011;48683;48.084;17.272;2023-04-06T02:29:22;7.95;;;5.47;;
62610;SDS011;48683;48.084;17.272;2023-04-06T02:31:47;9.10;;;5.50;;
62610;SDS011;48683;48.084;17.272;2023-04-06T02:34:13;9.63;;;5.35;;
62610;SDS011;48683;48.084;17.272;2023-04-06T02:36:43;9.35;;;5.30;;
62610;SDS011;48683;48.084;17.272;2023-04-06T02:39:09;9.52;;;5.05;;
62610;SDS011;48683;48.084;17.272;2023-04-06T02:41:35;11.90;;;6.45;;
62610;SDS011;48683;48.084;17.272;2023-04-06T02:44:00;10.38;;;5.47;;
62610;SDS011;48683;48.084;17.272;2023-04-06T02:46:26;11.40;;;6.50;;
62610;SDS011;48683;48.084;17.272;2023-04-06T02:48:51;9.85;;;6.63;;
62610;SDS011;48683;48.084;17.272;2023-04-06T02:51:16;11.05;;;5.57;;
62610;SDS011;48683;48.084;17.272;2023-04-06T02:53:42;11.80;;;6.75;;
62610;SDS011;48683;48.084;17.272;2023-04-06T02:56:07;11.50;;;6.60;;
62610;SDS011;48683;48.084;17.272;2023-04-06T02:58:32;10.93;;;6.55;;
62610;SDS011;48683;48.084;17.272;2023-04-06T03:00:58;10.82;;;6.95;;
62610;SDS011;48683;48.084;17.272;2023-04-06T03:03:23;11.13;;;6.55;;
62610;SDS011;48683;48.084;17.272;2023-04-06T03:05:48;9.18;;;5.88;;
62610;SDS011;48683;48.084;17.272;2023-04-06T03:08:14;12.40;;;7.38;;
62610;SDS011;48683;48.084;17.272;2023-04-06T03:10:40;11.25;;;7.03;;
62610;SDS011;48683;48.084;17.272;2023-04-06T03:13:05;11.57;;;7.00;;
62610;SDS011;48683;48.084;17.272;2023-04-06T03:15:31;13.43;;;7.20;;
62610;SDS011;48683;48.084;17.272;2023-04-06T03:17:56;17.67;;;7.38;;
62610;SDS011;48683;48.084;17.272;2023-04-06T03:20:22;12.07;;;6.23;;
62610;SDS011;48683;48.084;17.272;2023-04-06T03:22:48;11.05;;;6.90;;
62610;SDS011;48683;48.084;17.272;2023-04-06T03:25:13;10.73;;;6.60;;
62610;SDS011;48683;48.084;17.272;2023-04-06T03:27:38;12.48;;;6.22;;
62610;SDS011;48683;48.084;17.272;2023-04-06T03:30:04;8.45;;;6.35;;
62610;SDS011;48683;48.084;17.272;2023-04-06T03:32:30;9.95;;;6.53;;
62610;SDS011;48683;48.084;17.272;2023-04-06T03:34:55;11.55;;;6.72;;
62610;SDS011;48683;48.084;17.272;2023-04-06T03:37:21;10.73;;;6.72;;
62610;SDS011;48683;48.084;17.272;2023-04-06T03:39:46;11.15;;;6.78;;
62610;SDS011;48683;48.084;17.272;2023-04-06T03:42:11;15.25;;;7.45;;
62610;SDS011;48683;48.084;17.272;2023-04-06T03:44:37;11.90;;;6.72;;
62610;SDS011;48683;48.084;17.272;2023-04-06T03:47:02;11.80;;;6.60;;
62610;SDS011;48683;48.084;17.272;2023-04-06T03:49:27;13.02;;;7.47;;
62610;SDS011;48683;48.084;17.272;2023-04-06T03:51:53;11.90;;;6.97;;
62610;SDS011;48683;48.084;17.272;2023-04-06T03:54:18;12.23;;;6.93;;
62610;SDS011;48683;48.084;17.272;2023-04-06T03:56:43;11.80;;;7.13;;
62610;SDS011;48683;48.084;17.272;2023-04-06T03:59:09;14.30;;;7.55;;
62610;SDS011;48683;48.084;17.272;2023-04-06T04:01:34;11.80;;;6.43;;
62610;SDS011;48683;48.084;17.272;2023-04-06T04:04:00;12.63;;;6.82;;
62610;SDS011;48683;48.084;17.272;2023-04-06T04:06:25;13.75;;;6.82;;
62610;SDS011;48683;48.084;17.272;2023-04-06T04:08:50;13.68;;;6.80;;
62610;SDS011;48683;48.084;17.272;2023-04-06T04:11:16;11.90;;;7.00;;
62610;SDS011;48683;48.084;17.272;2023-04-06T04:13:41;16.55;;;7.28;;
62610;SDS011;48683;48.084;17.272;2023-04-06T04:16:07;11.35;;;7.03;;
62610;SDS011;48683;48.084;17.272;2023-04-06T04:18:32;15.77;;;8.13;;
62610;SDS011;48683;48.084;17.272;2023-04-06T04:20:57;11.20;;;7.32;;
62610;SDS011;48683;48.084;17.272;2023-04-06T04:23:23;12.57;;;7.30;;
62610;SDS011;48683;48.084;17.272;2023-04-06T04:25:48;10.50;;;7.20;;
62610;SDS011;48683;48.084;17.272;2023-04-06T04:28:13;13.10;;;7.30;;
62610;SDS011;48683;48.084;17.272;2023-04-06T04:30:39;13.73;;;7.45;;
62610;SDS011;48683;48.084;17.272;2023-04-06T04:33:04;11.15;;;6.95;;
62610;SDS011;48683;48.084;17.272;2023-04-06T04:35:30;13.88;;;7.38;;
62610;SDS011;48683;48.084;17.272;2023-04-06T04:37:55;16.00;;;7.45;;
62610;SDS011;48683;48.084;17.272;2023-04-06T04:40:21;10.88;;;7.32;;
62610;SDS011;48683;48.084;17.272;2023-04-06T04:42:46;12.50;;;7.40;;
62610;SDS011;48683;48.084;17.272;2023-04-06T04:45:12;13.95;;;7.25;;
62610;SDS011;48683;48.084;17.272;2023-04-06T04:47:37;14.15;;;6.90;;
62610;SDS011;48683;48.084;17.272;2023-04-06T04:50:03;12.50;;;7.32;;
62610;SDS011;48683;48.084;17.272;2023-04-06T04:52:28;11.85;;;7.10;;
62610;SDS011;48683;48.084;17.272;2023-04-06T04:54:54;10.57;;;7.55;;
62610;SDS011;48683;48.084;17.272;2023-04-06T04:57:19;16.65;;;7.18;;
62610;SDS011;48683;48.084;17.272;2023-04-06T04:59:45;12.25;;;7.10;;
62610;SDS011;48683;48.084;17.272;2023-04-06T05:02:10;11.05;;;6.90;;
62610;SDS011;48683;48.084;17.272;2023-04-06T05:04:35;12.75;;;8.63;;
62610;SDS011;48683;48.084;17.272;2023-04-06T05:07:10;17.83;;;7.53;;
62610;SDS011;48683;48.084;17.272;2023-04-06T05:09:35;13.10;;;8.00;;
62610;SDS011;48683;48.084;17.272;2023-04-06T05:12:01;13.45;;;7.03;;
62610;SDS011;48683;48.084;17.272;2023-04-06T05:14:26;16.40;;;7.72;;
62610;SDS011;48683;48.084;17.272;2023-04-06T05:16:53;16.38;;;6.93;;
62610;SDS011;48683;48.084;17.272;2023-04-06T05:19:18;10.27;;;6.70;;
62610;SDS011;48683;48.084;17.272;2023-04-06T05:21:44;13.70;;;7.15;;
62610;SDS011;48683;48.084;17.272;2023-04-06T05:24:10;15.27;;;6.68;;
62610;SDS011;48683;48.084;17.272;2023-04-06T05:26:35;24.38;;;7.78;;
62610;SDS011;48683;48.084;17.272;2023-04-06T05:29:01;15.77;;;7.13;;
62610;SDS011;48683;48.084;17.272;2023-04-06T05:31:26;16.02;;;7.05;;
62610;SDS011;48683;48.084;17.272;2023-04-06T05:33:52;19.55;;;7.95;;
62610;SDS011;48683;48.084;17.272;2023-04-06T05:36:17;15.98;;;6.70;;
62610;SDS011;48683;48.084;17.272;2023-04-06T05:38:42;26.10;;;9.32;;
62610;SDS011;48683;48.084;17.272;2023-04-06T05:41:08;22.02;;;7.88;;
62610;SDS011;48683;48.084;17.272;2023-04-06T05:43:33;14.98;;;7.03;;
62610;SDS011;48683;48.084;17.272;2023-04-06T05:45:58;18.80;;;7.32;;
62610;SDS011;48683;48.084;17.272;2023-04-06T05:48:24;20.73;;;6.88;;
62610;SDS011;48683;48.084;17.272;2023-04-06T05:50:50;18.73;;;8.38;;
62610;SDS011;48683;48.084;17.272;2023-04-06T05:53:16;13.60;;;7.55;;
62610;SDS011;48683;48.084;17.272;2023-04-06T05:55:41;18.17;;;8.45;;
62610;SDS011;48683;48.084;17.272;2023-04-06T05:58:07;15.15;;;8.23;;
62610;SDS011;48683;48.084;17.272;2023-04-06T06:00:32;12.32;;;7.95;;
62610;SDS011;48683;48.084;17.272;2023-04-06T06:02:58;17.17;;;7.95;;
62610;SDS011;48683;48.084;17.272;2023-04-06T06:05:23;15.10;;;8.43;;
62610;SDS011;48683;48.084;17.272;2023-04-06T06:07:48;12.32;;;7.57;;
62610;SDS011;48683;48.084;17.272;2023-04-06T06:10:14;12.20;;;7.70;;
62610;SDS011;48683;48.084;17.272;2023-04-06T06:12:39;14.43;;;8.75;;
62610;SDS011;48683;48.084;17.272;2023-04-06T06:15:05;19.20;;;8.27;;
62610;SDS011;48683;48.084;17.272;2023-04-06T06:17:31;14.93;;;7.75;;
62610;SDS011;48683;48.084;17.272;2023-04-06T06:19:56;15.52;;;7.10;;
62610;SDS011;48683;48.084;17.272;2023-04-06T06:22:22;10.10;;;7.00;;
62610;SDS011;48683;48.084;17.272;2023-04-06T06:24:47;15.20;;;7.40;;
62610;SDS011;48683;48.084;17.272;2023-04-06T06:27:14;13.32;;;6.43;;
62610;SDS011;48683;48.084;17.272;2023-04-06T06:29:40;9.70;;;6.47;;
62610;SDS011;48683;48.084;17.272;2023-04-06T06:32:05;13.38;;;6.55;;
62610;SDS011;48683;48.084;17.272;2023-04-06T06:34:30;12.35;;;7.43;;
62610;SDS011;48683;48.084;17.272;2023-04-06T06:36:56;12.43;;;6.63;;
62610;SDS011;48683;48.084;17.272;2023-04-06T06:39:21;14.07;;;7.15;;
62610;SDS011;48683;48.084;17.272;2023-04-06T06:41:47;12.10;;;6.47;;
62610;SDS011;48683;48.084;17.272;2023-04-06T06:44:12;10.43;;;6.80;;
62610;SDS011;48683;48.084;17.272;2023-04-06T06:46:37;13.60;;;7.55;;
62610;SDS011;48683;48.084;17.272;2023-04-06T06:49:03;10.80;;;6.82;;
62610;SDS011;48683;48.084;17.272;2023-04-06T06:51:28;9.80;;;6.43;;
62610;SDS011;48683;48.084;17.272;2023-04-06T06:53:54;10.27;;;6.95;;
62610;SDS011;48683;48.084;17.272;2023-04-06T06:56:19;10.48;;;6.60;;
62610;SDS011;48683;48.084;17.272;2023-04-06T06:58:45;12.75;;;6.57;;
62610;SDS011;48683;48.084;17.272;2023-04-06T07:01:11;11.35;;;6.68;;
62610;SDS011;48683;48.084;17.272;2023-04-06T07:03:36;11.73;;;7.20;;
62610;SDS011;48683;48.084;17.272;2023-04-06T07:06:01;8.98;;;6.50;;
62610;SDS011;48683;48.084;17.272;2023-04-06T07:08:27;10.55;;;6.65;;
62610;SDS011;48683;48.084;17.272;2023-04-06T07:10:52;11.27;;;6.97;;
62610;SDS011;48683;48.084;17.272;2023-04-06T07:13:21;14.05;;;6.95;;
62610;SDS011;48683;48.084;17.272;2023-04-06T07:15:50;9.73;;;6.07;;
62610;SDS011;48683;48.084;17.272;2023-04-06T07:18:16;9.38;;;6.15;;
62610;SDS011;48683;48.084;17.272;2023-04-06T07:20:42;11.10;;;7.32;;
62610;SDS011;48683;48.084;17.272;2023-04-06T07:23:08;9.40;;;6.25;;
62610;SDS011;48683;48.084;17.272;2023-04-06T07:25:33;9.73;;;7.30;;
62610;SDS011;48683;48.084;17.272;2023-04-06T07:27:58;12.20;;;7.70;;
62610;SDS011;48683;48.084;17.272;2023-04-06T07:30:24;10.43;;;6.18;;
62610;SDS011;48683;48.084;17.272;2023-04-06T07:35:16;8.70;;;6.73;;
62610;SDS011;48683;48.084;17.272;2023-04-06T07:37:42;11.25;;;7.15;;
62610;SDS011;48683;48.084;17.272;2023-04-06T07:40:07;9.27;;;6.25;;
62610;SDS011;48683;48.084;17.272;2023-04-06T07:42:33;15.50;;;6.82;;
62610;SDS011;48683;48.084;17.272;2023-04-06T07:44:59;10.00;;;6.50;;
62610;SDS011;48683;48.084;17.272;2023-04-06T07:47:24;12.95;;;6.70;;
62610;SDS011;48683;48.084;17.272;2023-04-06T07:49:50;8.55;;;6.57;;
62610;SDS011;48683;48.084;17.272;2023-04-06T07:52:15;13.95;;;6.68;;
62610;SDS011;48683;48.084;17.272;2023-04-06T07:54:41;8.48;;;6.30;;
62610;SDS011;48683;48.084;17.272;2023-04-06T07:57:07;9.48;;;6.38;;
62610;SDS011;48683;48.084;17.272;2023-04-06T07:59:32;10.15;;;6.80;;
62610;SDS011;48683;48.084;17.272;2023-04-06T08:01:57;9.43;;;6.80;;
62610;SDS011;48683;48.084;17.272;2023-04-06T08:04:23;12.18;;;7.60;;
62610;SDS011;48683;48.084;17.272;2023-04-06T08:06:48;9.20;;;6.10;;
62610;SDS011;48683;48.084;17.272;2023-04-06T08:09:13;9.35;;;6.30;;
62610;SDS011;48683;48.084;17.272;2023-04-06T08:11:39;8.27;;;5.70;;
62610;SDS011;48683;48.084;17.272;2023-04-06T08:14:05;10.25;;;5.80;;
62610;SDS011;48683;48.084;17.272;2023-04-06T08:16:30;10.75;;;6.22;;
62610;SDS011;48683;48.084;17.272;2023-04-06T08:18:56;14.38;;;6.35;;
62610;SDS011;48683;48.084;17.272;2023-04-06T08:21:21;10.68;;;6.70;;
62610;SDS011;48683;48.084;17.272;2023-04-06T08:23:47;7.72;;;4.85;;
62610;SDS011;48683;48.084;17.272;2023-04-06T08:26:12;7.15;;;5.35;;
62610;SDS011;48683;48.084;17.272;2023-04-06T08:28:37;9.93;;;5.93;;
62610;SDS011;48683;48.084;17.272;2023-04-06T08:31:06;9.27;;;5.97;;
62610;SDS011;48683;48.084;17.272;2023-04-06T08:33:31;8.50;;;5.40;;
62610;SDS011;48683;48.084;17.272;2023-04-06T08:36:06;9.82;;;4.88;;
62610;SDS011;48683;48.084;17.272;2023-04-06T08:38:35;7.85;;;4.60;;
62610;SDS011;48683;48.084;17.272;2023-04-06T08:41:06;7.88;;;5.32;;
62610;SDS011;48683;48.084;17.272;2023-04-06T08:43:32;7.88;;;4.65;;
62610;SDS011;48683;48.084;17.272;2023-04-06T08:45:58;8.82;;;5.60;;
62610;SDS011;48683;48.084;17.272;2023-04-06T08:48:24;7.80;;;5.30;;
62610;SDS011;48683;48.084;17.272;2023-04-06T08:50:50;6.78;;;5.60;;
62610;SDS011;48683;48.084;17.272;2023-04-06T08:53:16;10.73;;;5.70;;
62610;SDS011;48683;48.084;17.272;2023-04-06T08:55:42;8.82;;;5.18;;
62610;SDS011;48683;48.084;17.272;2023-04-06T08:58:08;8.48;;;5.40;;
62610;SDS011;48683;48.084;17.272;2023-04-06T09:00:35;8.95;;;5.65;;
62610;SDS011;48683;48.084;17.272;2023-04-06T09:03:03;6.50;;;4.65;;
62610;SDS011;48683;48.084;17.272;2023-04-06T09:05:31;6.93;;;3.95;;
62610;SDS011;48683;48.084;17.272;2023-04-06T09:07:56;8.20;;;4.75;;
62610;SDS011;48683;48.084;17.272;2023-04-06T09:10:22;8.10;;;4.70;;
62610;SDS011;48683;48.084;17.272;2023-04-06T09:12:50;8.07;;;4.63;;
62610;SDS011;48683;48.084;17.272;2023-04-06T09:15:19;6.65;;;4.38;;
62610;SDS011;48683;48.084;17.272;2023-04-06T09:17:45;8.40;;;3.92;;
62610;SDS011;48683;48.084;17.272;2023-04-06T09:20:11;8.07;;;4.45;;
62610;SDS011;48683;48.084;17.272;2023-04-06T09:22:37;11.57;;;4.53;;
62610;SDS011;48683;48.084;17.272;2023-04-06T09:25:04;9.55;;;4.05;;
62610;SDS011;48683;48.084;17.272;2023-04-06T09:27:30;5.70;;;3.75;;
62610;SDS011;48683;48.084;17.272;2023-04-06T09:30:03;7.83;;;4.43;;
62610;SDS011;48683;48.084;17.272;2023-04-06T09:32:43;7.97;;;4.03;;
62610;SDS011;48683;48.084;17.272;2023-04-06T09:35:15;5.05;;;4.18;;
62610;SDS011;48683;48.084;17.272;2023-04-06T09:37:44;6.95;;;4.38;;
62610;SDS011;48683;48.084;17.272;2023-04-06T09:40:11;7.25;;;4.38;;
62610;SDS011;48683;48.084;17.272;2023-04-06T09:42:37;5.68;;;4.50;;
62610;SDS011;48683;48.084;17.272;2023-04-06T09:45:02;5.72;;;4.13;;
62610;SDS011;48683;48.084;17.272;2023-04-06T09:47:28;6.55;;;4.50;;
62610;SDS011;48683;48.084;17.272;2023-04-06T09:52:23;7.28;;;4.60;;
62610;SDS011;48683;48.084;17.272;2023-04-06T09:54:51;6.63;;;4.63;;
62610;SDS011;48683;48.084;17.272;2023-04-06T09:57:25;5.82;;;4.30;;
62610;SDS011;48683;48.084;17.272;2023-04-06T10:08:06;7.43;;;3.50;;
62610;SDS011;48683;48.084;17.272;2023-04-06T10:10:35;7.28;;;4.20;;
62610;SDS011;48683;48.084;17.272;2023-04-06T10:13:00;4.03;;;3.20;;
62610;SDS011;48683;48.084;17.272;2023-04-06T10:15:27;7.27;;;4.03;;
62610;SDS011;48683;48.084;17.272;2023-04-06T10:17:54;5.63;;;3.10;;
62610;SDS011;48683;48.084;17.272;2023-04-06T10:23:05;5.47;;;3.50;;
62610;SDS011;48683;48.084;17.272;2023-04-06T10:25:55;5.13;;;3.38;;
62610;SDS011;48683;48.084;17.272;2023-04-06T10:28:24;6.45;;;3.05;;
62610;SDS011;48683;48.084;17.272;2023-04-06T10:30:57;5.90;;;3.57;;
62610;SDS011;48683;48.084;17.272;2023-04-06T10:33:24;4.82;;;3.25;;
62610;SDS011;48683;48.084;17.272;2023-04-06T10:35:51;7.28;;;3.67;;
62610;SDS011;48683;48.084;17.272;2023-04-06T10:38:16;4.93;;;3.55;;
62610;SDS011;48683;48.084;17.272;2023-04-06T10:40:46;5.20;;;3.25;;
62610;SDS011;48683;48.084;17.272;2023-04-06T10:43:13;5.50;;;3.25;;
62610;SDS011;48683;48.084;17.272;2023-04-06T10:45:44;6.13;;;3.10;;
62610;SDS011;48683;48.084;17.272;2023-04-06T10:48:13;4.30;;;3.33;;
62610;SDS011;48683;48.084;17.272;2023-04-06T10:50:40;6.82;;;3.80;;
62610;SDS011;48683;48.084;17.272;2023-04-06T10:53:06;5.43;;;3.65;;
62610;SDS011;48683;48.084;17.272;2023-04-06T10:55:32;6.90;;;3.65;;
62610;SDS011;48683;48.084;17.272;2023-04-06T10:57:57;6.50;;;3.45;;
62610;SDS011;48683;48.084;17.272;2023-04-06T11:00:23;4.32;;;3.20;;
62610;SDS011;48683;48.084;17.272;2023-04-06T11:02:48;4.85;;;3.15;;
62610;SDS011;48683;48.084;17.272;2023-04-06T11:05:14;6.07;;;3.45;;
62610;SDS011;48683;48.084;17.272;2023-04-06T11:07:40;6.43;;;4.13;;
62610;SDS011;48683;48.084;17.272;2023-04-06T11:10:06;7.22;;;4.40;;
62610;SDS011;48683;48.084;17.272;2023-04-06T11:12:32;5.38;;;4.10;;
62610;SDS011;48683;48.084;17.272;2023-04-06T11:14:58;5.95;;;4.15;;
62610;SDS011;48683;48.084;17.272;2023-04-06T11:17:33;4.75;;;4.00;;
62610;SDS011;48683;48.084;17.272;2023-04-06T11:19:59;9.05;;;4.50;;
62610;SDS011;48683;48.084;17.272;2023-04-06T11:22:25;6.53;;;4.38;;
62610;SDS011;48683;48.084;17.272;2023-04-06T11:24:51;8.45;;;4.63;;
62610;SDS011;48683;48.084;17.272;2023-04-06T11:27:18;7.28;;;4.45;;
62610;SDS011;48683;48.084;17.272;2023-04-06T11:29:44;8.32;;;4.25;;
62610;SDS011;48683;48.084;17.272;2023-04-06T11:32:19;6.25;;;3.90;;
62610;SDS011;48683;48.084;17.272;2023-04-06T11:34:47;5.30;;;3.67;;
62610;SDS011;48683;48.084;17.272;2023-04-06T11:37:13;7.03;;;4.03;;
62610;SDS011;48683;48.084;17.272;2023-04-06T11:39:48;6.55;;;3.97;;
62610;SDS011;48683;48.084;17.272;2023-04-06T11:42:25;8.75;;;3.85;;
62610;SDS011;48683;48.084;17.272;2023-04-06T11:44:59;6.05;;;3.88;;
62610;SDS011;48683;48.084;17.272;2023-04-06T11:47:28;5.03;;;3.92;;
62610;SDS011;48683;48.084;17.272;2023-04-06T11:49:55;7.35;;;4.32;;
62610;SDS011;48683;48.084;17.272;2023-04-06T11:52:24;6.50;;;3.30;;
62610;SDS011;48683;48.084;17.272;2023-04-06T11:54:51;7.25;;;3.25;;
62610;SDS011;48683;48.084;17.272;2023-04-06T11:59:44;6.33;;;3.47;;
62610;SDS011;48683;48.084;17.272;2023-04-06T12:02:09;9.38;;;3.67;;
62610;SDS011;48683;48.084;17.272;2023-04-06T12:04:35;4.80;;;3.38;;
62610;SDS011;48683;48.084;17.272;2023-04-06T12:07:01;6.90;;;2.95;;
62610;SDS011;48683;48.084;17.272;2023-04-06T12:09:27;4.93;;;3.25;;
62610;SDS011;48683;48.084;17.272;2023-04-06T12:11:53;8.18;;;3.05;;
62610;SDS011;48683;48.084;17.272;2023-04-06T12:14:18;5.28;;;2.95;;
62610;SDS011;48683;48.084;17.272;2023-04-06T12:16:44;5.63;;;3.30;;
62610;SDS011;48683;48.084;17.272;2023-04-06T12:19:10;4.93;;;2.97;;
62610;SDS011;48683;48.084;17.272;2023-04-06T12:21:36;5.68;;;3.40;;
62610;SDS011;48683;48.084;17.272;2023-04-06T12:24:02;3.42;;;2.63;;
62610;SDS011;48683;48.084;17.272;2023-04-06T12:26:29;4.88;;;3.33;;
62610;SDS011;48683;48.084;17.272;2023-04-06T12:28:55;4.22;;;2.90;;
62610;SDS011;48683;48.084;17.272;2023-04-06T12:31:21;5.57;;;3.05;;
62610;SDS011;48683;48.084;17.272;2023-04-06T12:33:48;10.02;;;2.85;;
62610;SDS011;48683;48.084;17.272;2023-04-06T12:36:18;5.30;;;2.92;;
62610;SDS011;48683;48.084;17.272;2023-04-06T12:38:44;5.78;;;3.05;;
62610;SDS011;48683;48.084;17.272;2023-04-06T12:41:13;4.82;;;3.05;;
62610;SDS011;48683;48.084;17.272;2023-04-06T12:43:40;3.97;;;2.70;;
62610;SDS011;48683;48.084;17.272;2023-04-06T12:46:06;3.38;;;2.78;;
62610;SDS011;48683;48.084;17.272;2023-04-06T12:48:31;5.28;;;2.72;;
62610;SDS011;48683;48.084;17.272;2023-04-06T12:50:57;3.67;;;2.60;;
62610;SDS011;48683;48.084;17.272;2023-04-06T12:53:24;4.38;;;2.90;;
62610;SDS011;48683;48.084;17.272;2023-04-06T12:55:51;5.30;;;3.00;;
62610;SDS011;48683;48.084;17.272;2023-04-06T12:58:18;4.25;;;2.53;;
62610;SDS011;48683;48.084;17.272;2023-04-06T13:00:44;4.95;;;2.45;;
62610;SDS011;48683;48.084;17.272;2023-04-06T13:03:10;4.70;;;3.13;;
62610;SDS011;48683;48.084;17.272;2023-04-06T13:05:35;3.97;;;2.72;;
62610;SDS011;48683;48.084;17.272;2023-04-06T13:08:01;4.75;;;2.90;;
62610;SDS011;48683;48.084;17.272;2023-04-06T13:10:26;5.25;;;3.25;;
62610;SDS011;48683;48.084;17.272;2023-04-06T13:12:51;6.05;;;3.20;;
62610;SDS011;48683;48.084;17.272;2023-04-06T13:15:17;4.15;;;3.13;;
62610;SDS011;48683;48.084;17.272;2023-04-06T13:17:42;4.47;;;3.13;;
62610;SDS011;48683;48.084;17.272;2023-04-06T13:20:08;4.88;;;2.70;;
62610;SDS011;48683;48.084;17.272;2023-04-06T13:22:34;4.32;;;3.00;;
62610;SDS011;48683;48.084;17.272;2023-04-06T13:24:59;8.10;;;3.28;;
62610;SDS011;48683;48.084;17.272;2023-04-06T13:27:25;6.20;;;3.00;;
62610;SDS011;48683;48.084;17.272;2023-04-06T13:29:50;3.83;;;3.22;;
62610;SDS011;48683;48.084;17.272;2023-04-06T13:32:15;4.88;;;3.40;;
62610;SDS011;48683;48.084;17.272;2023-04-06T13:34:41;3.83;;;3.28;;
62610;SDS011;48683;48.084;17.272;2023-04-06T13:37:10;4.00;;;2.70;;
62610;SDS011;48683;48.084;17.272;2023-04-06T13:39:38;6.55;;;3.25;;
62610;SDS011;48683;48.084;17.272;2023-04-06T13:42:04;4.13;;;3.25;;
62610;SDS011;48683;48.084;17.272;2023-04-06T13:44:29;4.03;;;3.08;;
62610;SDS011;48683;48.084;17.272;2023-04-06T13:46:56;5.20;;;3.00;;
62610;SDS011;48683;48.084;17.272;2023-04-06T13:49:21;7.18;;;3.33;;
62610;SDS011;48683;48.084;17.272;2023-04-06T13:51:47;3.80;;;2.92;;
62610;SDS011;48683;48.084;17.272;2023-04-06T13:54:12;6.30;;;3.38;;
62610;SDS011;48683;48.084;17.272;2023-04-06T13:56:37;5.78;;;2.65;;
62610;SDS011;48683;48.084;17.272;2023-04-06T13:59:03;6.25;;;3.03;;
62610;SDS011;48683;48.084;17.272;2023-04-06T14:01:28;5.50;;;3.28;;
62610;SDS011;48683;48.084;17.272;2023-04-06T14:03:53;6.03;;;3.28;;
62610;SDS011;48683;48.084;17.272;2023-04-06T14:06:19;5.70;;;3.05;;
62610;SDS011;48683;48.084;17.272;2023-04-06T14:08:44;4.13;;;3.08;;
62610;SDS011;48683;48.084;17.272;2023-04-06T14:11:14;9.80;;;3.10;;
62610;SDS011;48683;48.084;17.272;2023-04-06T14:13:40;5.97;;;3.58;;
62610;SDS011;48683;48.084;17.272;2023-04-06T14:16:06;5.20;;;3.17;;
62610;SDS011;48683;48.084;17.272;2023-04-06T14:18:32;4.65;;;2.90;;
62610;SDS011;48683;48.084;17.272;2023-04-06T14:20:59;5.18;;;3.20;;
62610;SDS011;48683;48.084;17.272;2023-04-06T14:23:26;4.53;;;3.17;;
62610;SDS011;48683;48.084;17.272;2023-04-06T14:26:00;5.50;;;3.65;;
62610;SDS011;48683;48.084;17.272;2023-04-06T14:28:28;5.07;;;3.23;;
62610;SDS011;48683;48.084;17.272;2023-04-06T14:30:53;5.55;;;3.45;;
62610;SDS011;48683;48.084;17.272;2023-04-06T14:33:19;10.07;;;3.35;;
62610;SDS011;48683;48.084;17.272;2023-04-06T14:35:44;5.63;;;3.38;;
62610;SDS011;48683;48.084;17.272;2023-04-06T14:38:10;4.95;;;3.22;;
62610;SDS011;48683;48.084;17.272;2023-04-06T14:40:35;6.70;;;3.72;;